sensor_id;sensor_type;location;lat;lon;timestamp;P1;durP1;ratioP1;P2;durP2;ratioP2
8714;SDS011;4394;51.208;8.904;2023-10-09T00:01:39;6.50;;;3.23;;
8714;SDS011;4394;51.208;8.904;2023-10-09T00:04:30;5.50;;;3.13;;
8714;SDS011;4394;51.208;8.904;2023-10-09T00:07:20;5.77;;;3.67;;
8714;SDS011;4394;51.208;8.904;2023-10-09T00:10:09;7.87;;;3.60;;
8714;SDS011;4394;51.208;8.904;2023-10-09T00:12:59;8.37;;;3.50;;
8714;SDS011;4394;51.208;8.904;2023-10-09T00:15:47;8.47;;;3.27;;
8714;SDS011;4394;51.208;8.904;2023-10-09T00:18:40;8.37;;;3.80;;
8714;SDS011;4394;51.208;8.904;2023-10-09T00:21:33;7.63;;;3.13;;
8714;SDS011;4394;51.208;8.904;2023-10-09T00:24:24;8.17;;;3.17;;
8714;SDS011;4394;51.208;8.904;2023-10-09T00:27:12;10.43;;;3.90;;
8714;SDS011;4394;51.208;8.904;2023-10-09T00:30:01;9.23;;;3.97;;
8714;SDS011;4394;51.208;8.904;2023-10-09T00:32:52;7.10;;;3.50;;
8714;SDS011;4394;51.208;8.904;2023-10-09T00:35:47;6.80;;;3.73;;
8714;SDS011;4394;51.208;8.904;2023-10-09T00:38:41;7.43;;;3.90;;
8714;SDS011;4394;51.208;8.904;2023-10-09T00:41:32;7.07;;;3.33;;
8714;SDS011;4394;51.208;8.904;2023-10-09T00:44:21;8.57;;;3.83;;
8714;SDS011;4394;51.208;8.904;2023-10-09T00:47:11;5.40;;;3.47;;
8714;SDS011;4394;51.208;8.904;2023-10-09T00:50:16;8.27;;;3.80;;
8714;SDS011;4394;51.208;8.904;2023-10-09T00:53:09;6.07;;;3.23;;
8714;SDS011;4394;51.208;8.904;2023-10-09T00:56:04;11.90;;;4.67;;
8714;SDS011;4394;51.208;8.904;2023-10-09T00:59:05;10.13;;;3.90;;
8714;SDS011;4394;51.208;8.904;2023-10-09T01:02:00;6.70;;;3.43;;
8714;SDS011;4394;51.208;8.904;2023-10-09T01:04:51;8.10;;;3.60;;
8714;SDS011;4394;51.208;8.904;2023-10-09T01:07:40;8.37;;;4.23;;
8714;SDS011;4394;51.208;8.904;2023-10-09T01:10:44;10.53;;;4.37;;
8714;SDS011;4394;51.208;8.904;2023-10-09T01:13:37;8.97;;;4.53;;
8714;SDS011;4394;51.208;8.904;2023-10-09T01:16:38;7.60;;;4.20;;
8714;SDS011;4394;51.208;8.904;2023-10-09T01:19:28;7.17;;;4.07;;
8714;SDS011;4394;51.208;8.904;2023-10-09T01:22:17;8.00;;;4.40;;
8714;SDS011;4394;51.208;8.904;2023-10-09T01:25:09;7.03;;;4.20;;
8714;SDS011;4394;51.208;8.904;2023-10-09T01:27:57;10.80;;;5.10;;
8714;SDS011;4394;51.208;8.904;2023-10-09T01:30:46;7.03;;;4.20;;
8714;SDS011;4394;51.208;8.904;2023-10-09T01:33:34;8.83;;;4.70;;
8714;SDS011;4394;51.208;8.904;2023-10-09T01:36:23;8.80;;;4.43;;
8714;SDS011;4394;51.208;8.904;2023-10-09T01:39:18;8.43;;;4.70;;
8714;SDS011;4394;51.208;8.904;2023-10-09T01:42:16;11.27;;;5.30;;
8714;SDS011;4394;51.208;8.904;2023-10-09T01:45:20;11.67;;;5.60;;
8714;SDS011;4394;51.208;8.904;2023-10-09T01:48:14;8.37;;;4.87;;
8714;SDS011;4394;51.208;8.904;2023-10-09T01:51:12;9.50;;;4.80;;
8714;SDS011;4394;51.208;8.904;2023-10-09T01:54:03;8.80;;;5.23;;
8714;SDS011;4394;51.208;8.904;2023-10-09T01:56:52;8.47;;;4.63;;
8714;SDS011;4394;51.208;8.904;2023-10-09T01:59:44;8.10;;;4.67;;
8714;SDS011;4394;51.208;8.904;2023-10-09T02:02:35;7.87;;;4.50;;
8714;SDS011;4394;51.208;8.904;2023-10-09T02:05:23;7.50;;;4.70;;
8714;SDS011;4394;51.208;8.904;2023-10-09T02:08:13;9.57;;;4.80;;
8714;SDS011;4394;51.208;8.904;2023-10-09T02:11:02;7.07;;;4.97;;
8714;SDS011;4394;51.208;8.904;2023-10-09T02:13:51;10.13;;;5.17;;
8714;SDS011;4394;51.208;8.904;2023-10-09T02:16:49;9.30;;;4.90;;
8714;SDS011;4394;51.208;8.904;2023-10-09T02:19:51;8.57;;;5.30;;
8714;SDS011;4394;51.208;8.904;2023-10-09T02:22:39;9.90;;;5.60;;
8714;SDS011;4394;51.208;8.904;2023-10-09T02:25:28;9.40;;;5.30;;
8714;SDS011;4394;51.208;8.904;2023-10-09T02:28:20;11.33;;;5.90;;
8714;SDS011;4394;51.208;8.904;2023-10-09T02:31:11;12.53;;;5.90;;
8714;SDS011;4394;51.208;8.904;2023-10-09T02:34:01;9.50;;;5.70;;
8714;SDS011;4394;51.208;8.904;2023-10-09T02:36:57;8.67;;;5.40;;
8714;SDS011;4394;51.208;8.904;2023-10-09T02:39:52;8.27;;;4.97;;
8714;SDS011;4394;51.208;8.904;2023-10-09T02:42:41;10.37;;;5.80;;
8714;SDS011;4394;51.208;8.904;2023-10-09T02:45:29;9.00;;;5.50;;
8714;SDS011;4394;51.208;8.904;2023-10-09T02:48:22;12.80;;;6.10;;
8714;SDS011;4394;51.208;8.904;2023-10-09T02:51:14;11.53;;;5.80;;
8714;SDS011;4394;51.208;8.904;2023-10-09T02:54:17;9.43;;;5.37;;
8714;SDS011;4394;51.208;8.904;2023-10-09T02:57:13;10.97;;;5.60;;
8714;SDS011;4394;51.208;8.904;2023-10-09T03:00:10;8.33;;;5.53;;
8714;SDS011;4394;51.208;8.904;2023-10-09T03:03:06;12.27;;;5.40;;
8714;SDS011;4394;51.208;8.904;2023-10-09T03:05:54;8.50;;;5.37;;
8714;SDS011;4394;51.208;8.904;2023-10-09T03:08:43;10.38;;;6.35;;
8714;SDS011;4394;51.208;8.904;2023-10-09T03:11:33;9.27;;;5.00;;
8714;SDS011;4394;51.208;8.904;2023-10-09T03:14:23;10.03;;;5.50;;
8714;SDS011;4394;51.208;8.904;2023-10-09T03:17:12;8.23;;;5.40;;
8714;SDS011;4394;51.208;8.904;2023-10-09T03:20:02;10.27;;;5.13;;
8714;SDS011;4394;51.208;8.904;2023-10-09T03:22:58;9.27;;;5.78;;
8714;SDS011;4394;51.208;8.904;2023-10-09T03:25:49;9.60;;;4.93;;
8714;SDS011;4394;51.208;8.904;2023-10-09T03:28:37;10.07;;;5.50;;
8714;SDS011;4394;51.208;8.904;2023-10-09T03:31:25;9.23;;;5.37;;
8714;SDS011;4394;51.208;8.904;2023-10-09T03:34:13;8.27;;;4.63;;
8714;SDS011;4394;51.208;8.904;2023-10-09T03:37:01;7.07;;;4.47;;
8714;SDS011;4394;51.208;8.904;2023-10-09T03:40:01;9.07;;;5.13;;
8714;SDS011;4394;51.208;8.904;2023-10-09T03:42:54;8.60;;;4.90;;
8714;SDS011;4394;51.208;8.904;2023-10-09T03:45:42;8.43;;;4.87;;
8714;SDS011;4394;51.208;8.904;2023-10-09T03:48:39;8.83;;;5.23;;
8714;SDS011;4394;51.208;8.904;2023-10-09T03:51:29;9.13;;;4.67;;
8714;SDS011;4394;51.208;8.904;2023-10-09T03:54:19;8.60;;;5.53;;
8714;SDS011;4394;51.208;8.904;2023-10-09T03:57:08;8.27;;;5.27;;
8714;SDS011;4394;51.208;8.904;2023-10-09T03:59:58;9.07;;;4.97;;
8714;SDS011;4394;51.208;8.904;2023-10-09T04:02:46;8.07;;;5.27;;
8714;SDS011;4394;51.208;8.904;2023-10-09T04:05:37;7.13;;;4.93;;
8714;SDS011;4394;51.208;8.904;2023-10-09T04:08:28;10.23;;;5.87;;
8714;SDS011;4394;51.208;8.904;2023-10-09T04:11:16;9.70;;;5.23;;
8714;SDS011;4394;51.208;8.904;2023-10-09T04:14:09;7.97;;;5.27;;
8714;SDS011;4394;51.208;8.904;2023-10-09T04:17:02;8.27;;;5.03;;
8714;SDS011;4394;51.208;8.904;2023-10-09T04:19:51;7.40;;;5.40;;
8714;SDS011;4394;51.208;8.904;2023-10-09T04:23:06;7.80;;;4.80;;
8714;SDS011;4394;51.208;8.904;2023-10-09T04:25:53;9.00;;;5.13;;
8714;SDS011;4394;51.208;8.904;2023-10-09T04:28:43;10.57;;;5.40;;
8714;SDS011;4394;51.208;8.904;2023-10-09T04:31:37;8.77;;;4.77;;
8714;SDS011;4394;51.208;8.904;2023-10-09T04:34:27;8.63;;;4.50;;
8714;SDS011;4394;51.208;8.904;2023-10-09T04:37:22;8.40;;;4.80;;
8714;SDS011;4394;51.208;8.904;2023-10-09T04:40:23;8.37;;;4.70;;
8714;SDS011;4394;51.208;8.904;2023-10-09T04:43:26;8.27;;;4.57;;
8714;SDS011;4394;51.208;8.904;2023-10-09T04:46:15;11.13;;;5.17;;
8714;SDS011;4394;51.208;8.904;2023-10-09T04:49:09;6.57;;;4.80;;
8714;SDS011;4394;51.208;8.904;2023-10-09T04:52:15;7.43;;;5.07;;
8714;SDS011;4394;51.208;8.904;2023-10-09T04:55:26;8.23;;;5.20;;
8714;SDS011;4394;51.208;8.904;2023-10-09T04:58:13;11.17;;;5.57;;
8714;SDS011;4394;51.208;8.904;2023-10-09T05:01:10;8.07;;;5.20;;
8714;SDS011;4394;51.208;8.904;2023-10-09T05:04:02;9.07;;;5.13;;
8714;SDS011;4394;51.208;8.904;2023-10-09T05:07:11;8.73;;;5.10;;
8714;SDS011;4394;51.208;8.904;2023-10-09T05:10:34;7.93;;;5.07;;
8714;SDS011;4394;51.208;8.904;2023-10-09T05:13:40;9.70;;;5.03;;
8714;SDS011;4394;51.208;8.904;2023-10-09T05:16:44;8.23;;;5.17;;
8714;SDS011;4394;51.208;8.904;2023-10-09T05:19:42;9.87;;;5.40;;
8714;SDS011;4394;51.208;8.904;2023-10-09T05:22:41;10.00;;;5.13;;
8714;SDS011;4394;51.208;8.904;2023-10-09T05:25:45;9.13;;;5.67;;
8714;SDS011;4394;51.208;8.904;2023-10-09T05:28:41;9.33;;;5.20;;
8714;SDS011;4394;51.208;8.904;2023-10-09T05:31:39;10.03;;;5.40;;
8714;SDS011;4394;51.208;8.904;2023-10-09T05:34:43;7.77;;;5.27;;
8714;SDS011;4394;51.208;8.904;2023-10-09T05:37:46;7.73;;;4.90;;
8714;SDS011;4394;51.208;8.904;2023-10-09T05:40:41;7.50;;;5.03;;
8714;SDS011;4394;51.208;8.904;2023-10-09T05:43:33;7.73;;;4.47;;
8714;SDS011;4394;51.208;8.904;2023-10-09T05:46:39;7.60;;;5.20;;
8714;SDS011;4394;51.208;8.904;2023-10-09T05:49:47;10.37;;;5.43;;
8714;SDS011;4394;51.208;8.904;2023-10-09T05:52:41;11.83;;;5.60;;
8714;SDS011;4394;51.208;8.904;2023-10-09T05:55:51;9.23;;;5.33;;
8714;SDS011;4394;51.208;8.904;2023-10-09T05:58:58;7.70;;;5.60;;
8714;SDS011;4394;51.208;8.904;2023-10-09T06:02:04;9.77;;;5.40;;
8714;SDS011;4394;51.208;8.904;2023-10-09T06:05:09;9.97;;;5.90;;
8714;SDS011;4394;51.208;8.904;2023-10-09T06:08:27;9.87;;;5.77;;
8714;SDS011;4394;51.208;8.904;2023-10-09T06:11:39;8.87;;;5.13;;
8714;SDS011;4394;51.208;8.904;2023-10-09T06:14:29;9.43;;;5.63;;
8714;SDS011;4394;51.208;8.904;2023-10-09T06:17:31;9.37;;;5.40;;
8714;SDS011;4394;51.208;8.904;2023-10-09T06:20:30;10.17;;;6.10;;
8714;SDS011;4394;51.208;8.904;2023-10-09T06:23:46;7.17;;;5.30;;
8714;SDS011;4394;51.208;8.904;2023-10-09T06:26:52;10.20;;;4.83;;
8714;SDS011;4394;51.208;8.904;2023-10-09T06:29:55;9.33;;;5.00;;
8714;SDS011;4394;51.208;8.904;2023-10-09T06:32:59;10.37;;;5.47;;
8714;SDS011;4394;51.208;8.904;2023-10-09T06:36:01;8.77;;;4.93;;
8714;SDS011;4394;51.208;8.904;2023-10-09T06:38:55;8.97;;;5.93;;
8714;SDS011;4394;51.208;8.904;2023-10-09T06:42:09;9.63;;;4.87;;
8714;SDS011;4394;51.208;8.904;2023-10-09T06:45:18;9.33;;;4.77;;
8714;SDS011;4394;51.208;8.904;2023-10-09T06:48:07;8.67;;;5.30;;
8714;SDS011;4394;51.208;8.904;2023-10-09T06:51:14;8.80;;;5.30;;
8714;SDS011;4394;51.208;8.904;2023-10-09T06:54:23;8.00;;;5.20;;
8714;SDS011;4394;51.208;8.904;2023-10-09T06:57:13;8.83;;;5.10;;
8714;SDS011;4394;51.208;8.904;2023-10-09T07:00:05;7.23;;;4.57;;
8714;SDS011;4394;51.208;8.904;2023-10-09T07:03:18;5.93;;;4.80;;
8714;SDS011;4394;51.208;8.904;2023-10-09T07:06:16;9.17;;;5.20;;
8714;SDS011;4394;51.208;8.904;2023-10-09T07:09:11;9.13;;;5.73;;
8714;SDS011;4394;51.208;8.904;2023-10-09T07:12:09;8.37;;;5.43;;
8714;SDS011;4394;51.208;8.904;2023-10-09T07:15:00;10.00;;;4.90;;
8714;SDS011;4394;51.208;8.904;2023-10-09T07:18:10;8.53;;;5.20;;
8714;SDS011;4394;51.208;8.904;2023-10-09T07:21:14;8.43;;;5.10;;
8714;SDS011;4394;51.208;8.904;2023-10-09T07:24:14;7.03;;;5.10;;
8714;SDS011;4394;51.208;8.904;2023-10-09T07:27:03;8.17;;;5.23;;
8714;SDS011;4394;51.208;8.904;2023-10-09T07:29:55;8.17;;;4.80;;
8714;SDS011;4394;51.208;8.904;2023-10-09T07:32:45;7.73;;;4.87;;
8714;SDS011;4394;51.208;8.904;2023-10-09T07:35:34;6.40;;;4.60;;
8714;SDS011;4394;51.208;8.904;2023-10-09T07:38:34;8.18;;;5.32;;
8714;SDS011;4394;51.208;8.904;2023-10-09T07:41:22;6.53;;;4.60;;
8714;SDS011;4394;51.208;8.904;2023-10-09T07:44:24;7.17;;;4.97;;
8714;SDS011;4394;51.208;8.904;2023-10-09T07:47:24;9.23;;;5.47;;
8714;SDS011;4394;51.208;8.904;2023-10-09T07:50:36;7.10;;;4.80;;
8714;SDS011;4394;51.208;8.904;2023-10-09T07:53:36;8.77;;;4.83;;
8714;SDS011;4394;51.208;8.904;2023-10-09T07:56:29;7.23;;;5.10;;
8714;SDS011;4394;51.208;8.904;2023-10-09T07:59:24;10.13;;;5.70;;
8714;SDS011;4394;51.208;8.904;2023-10-09T08:02:14;7.83;;;5.17;;
8714;SDS011;4394;51.208;8.904;2023-10-09T08:05:03;7.93;;;5.17;;
8714;SDS011;4394;51.208;8.904;2023-10-09T08:07:53;7.47;;;5.30;;
8714;SDS011;4394;51.208;8.904;2023-10-09T08:11:24;6.73;;;4.70;;
8714;SDS011;4394;51.208;8.904;2023-10-09T08:14:41;8.27;;;5.10;;
8714;SDS011;4394;51.208;8.904;2023-10-09T08:17:35;9.57;;;4.90;;
8714;SDS011;4394;51.208;8.904;2023-10-09T08:20:24;7.43;;;5.57;;
8714;SDS011;4394;51.208;8.904;2023-10-09T08:23:13;7.63;;;5.40;;
8714;SDS011;4394;51.208;8.904;2023-10-09T08:26:13;9.47;;;4.97;;
8714;SDS011;4394;51.208;8.904;2023-10-09T08:29:15;7.53;;;5.07;;
8714;SDS011;4394;51.208;8.904;2023-10-09T08:32:04;7.10;;;4.60;;
8714;SDS011;4394;51.208;8.904;2023-10-09T08:35:24;8.70;;;5.00;;
8714;SDS011;4394;51.208;8.904;2023-10-09T08:38:16;8.77;;;5.43;;
8714;SDS011;4394;51.208;8.904;2023-10-09T08:41:10;7.10;;;4.83;;
8714;SDS011;4394;51.208;8.904;2023-10-09T08:44:10;7.93;;;4.97;;
8714;SDS011;4394;51.208;8.904;2023-10-09T08:47:03;7.87;;;4.93;;
8714;SDS011;4394;51.208;8.904;2023-10-09T08:49:54;7.07;;;4.77;;
8714;SDS011;4394;51.208;8.904;2023-10-09T08:52:43;9.43;;;4.97;;
8714;SDS011;4394;51.208;8.904;2023-10-09T08:55:32;6.47;;;4.90;;
8714;SDS011;4394;51.208;8.904;2023-10-09T08:58:23;7.50;;;5.07;;
8714;SDS011;4394;51.208;8.904;2023-10-09T09:01:15;5.90;;;4.70;;
8714;SDS011;4394;51.208;8.904;2023-10-09T09:04:07;8.77;;;5.33;;
8714;SDS011;4394;51.208;8.904;2023-10-09T09:06:57;5.57;;;4.40;;
8714;SDS011;4394;51.208;8.904;2023-10-09T09:09:48;9.30;;;5.10;;
8714;SDS011;4394;51.208;8.904;2023-10-09T09:12:43;7.15;;;5.03;;
8714;SDS011;4394;51.208;8.904;2023-10-09T09:15:32;7.07;;;4.90;;
8714;SDS011;4394;51.208;8.904;2023-10-09T09:18:26;6.53;;;4.70;;
8714;SDS011;4394;51.208;8.904;2023-10-09T09:21:23;7.93;;;4.57;;
8714;SDS011;4394;51.208;8.904;2023-10-09T09:24:14;6.93;;;4.40;;
8714;SDS011;4394;51.208;8.904;2023-10-09T09:27:13;8.03;;;4.70;;
8714;SDS011;4394;51.208;8.904;2023-10-09T09:30:05;8.57;;;5.13;;
8714;SDS011;4394;51.208;8.904;2023-10-09T09:33:20;6.70;;;4.80;;
8714;SDS011;4394;51.208;8.904;2023-10-09T09:36:13;7.13;;;4.80;;
8714;SDS011;4394;51.208;8.904;2023-10-09T09:39:03;10.30;;;5.20;;
8714;SDS011;4394;51.208;8.904;2023-10-09T09:42:05;7.73;;;4.60;;
8714;SDS011;4394;51.208;8.904;2023-10-09T09:44:56;8.27;;;5.20;;
8714;SDS011;4394;51.208;8.904;2023-10-09T09:47:48;8.03;;;5.13;;
8714;SDS011;4394;51.208;8.904;2023-10-09T09:50:41;8.40;;;4.63;;
8714;SDS011;4394;51.208;8.904;2023-10-09T09:53:31;8.03;;;4.20;;
8714;SDS011;4394;51.208;8.904;2023-10-09T09:56:23;8.30;;;4.77;;
8714;SDS011;4394;51.208;8.904;2023-10-09T09:59:13;6.80;;;4.70;;
8714;SDS011;4394;51.208;8.904;2023-10-09T10:02:09;6.70;;;4.40;;
8714;SDS011;4394;51.208;8.904;2023-10-09T10:05:07;7.67;;;4.93;;
8714;SDS011;4394;51.208;8.904;2023-10-09T10:07:58;7.00;;;4.17;;
8714;SDS011;4394;51.208;8.904;2023-10-09T10:10:47;7.30;;;4.60;;
8714;SDS011;4394;51.208;8.904;2023-10-09T10:13:56;6.72;;;5.05;;
8714;SDS011;4394;51.208;8.904;2023-10-09T10:16:59;7.17;;;4.60;;
8714;SDS011;4394;51.208;8.904;2023-10-09T10:20:05;5.67;;;3.97;;
8714;SDS011;4394;51.208;8.904;2023-10-09T10:23:17;7.43;;;4.53;;
8714;SDS011;4394;51.208;8.904;2023-10-09T10:26:15;6.90;;;4.32;;
8714;SDS011;4394;51.208;8.904;2023-10-09T10:29:15;8.40;;;4.63;;
8714;SDS011;4394;51.208;8.904;2023-10-09T10:32:19;6.97;;;4.37;;
8714;SDS011;4394;51.208;8.904;2023-10-09T10:35:10;7.87;;;5.20;;
8714;SDS011;4394;51.208;8.904;2023-10-09T10:37:58;8.57;;;4.40;;
8714;SDS011;4394;51.208;8.904;2023-10-09T10:40:55;10.07;;;5.57;;
8714;SDS011;4394;51.208;8.904;2023-10-09T10:43:47;8.37;;;4.47;;
8714;SDS011;4394;51.208;8.904;2023-10-09T10:46:42;8.57;;;4.63;;
8714;SDS011;4394;51.208;8.904;2023-10-09T10:49:41;5.73;;;4.10;;
8714;SDS011;4394;51.208;8.904;2023-10-09T10:52:31;6.93;;;4.37;;
8714;SDS011;4394;51.208;8.904;2023-10-09T10:55:29;6.80;;;4.20;;
8714;SDS011;4394;51.208;8.904;2023-10-09T10:58:35;6.57;;;4.20;;
8714;SDS011;4394;51.208;8.904;2023-10-09T11:01:34;7.07;;;4.67;;
8714;SDS011;4394;51.208;8.904;2023-10-09T11:04:41;7.20;;;4.43;;
8714;SDS011;4394;51.208;8.904;2023-10-09T11:07:40;7.63;;;4.77;;
8714;SDS011;4394;51.208;8.904;2023-10-09T11:10:28;5.13;;;3.77;;
8714;SDS011;4394;51.208;8.904;2023-10-09T11:13:22;6.37;;;4.40;;
8714;SDS011;4394;51.208;8.904;2023-10-09T11:16:22;5.63;;;4.00;;
8714;SDS011;4394;51.208;8.904;2023-10-09T11:19:26;6.67;;;4.30;;
8714;SDS011;4394;51.208;8.904;2023-10-09T11:22:20;5.83;;;4.20;;
8714;SDS011;4394;51.208;8.904;2023-10-09T11:25:22;5.23;;;4.07;;
8714;SDS011;4394;51.208;8.904;2023-10-09T11:28:16;5.93;;;4.10;;
8714;SDS011;4394;51.208;8.904;2023-10-09T11:31:16;7.97;;;4.10;;
8714;SDS011;4394;51.208;8.904;2023-10-09T11:34:05;6.83;;;3.80;;
8714;SDS011;4394;51.208;8.904;2023-10-09T11:37:13;6.05;;;4.15;;
8714;SDS011;4394;51.208;8.904;2023-10-09T11:40:05;7.63;;;4.20;;
8714;SDS011;4394;51.208;8.904;2023-10-09T11:43:09;8.00;;;3.97;;
8714;SDS011;4394;51.208;8.904;2023-10-09T11:46:07;7.77;;;4.40;;
8714;SDS011;4394;51.208;8.904;2023-10-09T11:49:07;7.23;;;3.87;;
8714;SDS011;4394;51.208;8.904;2023-10-09T11:52:31;5.87;;;3.90;;
8714;SDS011;4394;51.208;8.904;2023-10-09T11:55:24;6.13;;;4.20;;
8714;SDS011;4394;51.208;8.904;2023-10-09T11:58:13;6.70;;;4.10;;
8714;SDS011;4394;51.208;8.904;2023-10-09T12:01:09;8.03;;;4.17;;
8714;SDS011;4394;51.208;8.904;2023-10-09T12:04:02;7.53;;;4.17;;
8714;SDS011;4394;51.208;8.904;2023-10-09T12:06:56;5.73;;;3.93;;
8714;SDS011;4394;51.208;8.904;2023-10-09T12:09:53;6.40;;;4.33;;
8714;SDS011;4394;51.208;8.904;2023-10-09T12:12:44;6.23;;;4.03;;
8714;SDS011;4394;51.208;8.904;2023-10-09T12:15:33;7.17;;;4.10;;
8714;SDS011;4394;51.208;8.904;2023-10-09T12:18:24;7.23;;;4.37;;
8714;SDS011;4394;51.208;8.904;2023-10-09T12:21:14;5.30;;;3.83;;
8714;SDS011;4394;51.208;8.904;2023-10-09T12:24:03;5.97;;;4.10;;
8714;SDS011;4394;51.208;8.904;2023-10-09T12:26:58;7.50;;;3.57;;
8714;SDS011;4394;51.208;8.904;2023-10-09T12:29:48;7.33;;;4.10;;
8714;SDS011;4394;51.208;8.904;2023-10-09T12:32:37;6.83;;;4.10;;
8714;SDS011;4394;51.208;8.904;2023-10-09T12:35:26;7.53;;;4.33;;
8714;SDS011;4394;51.208;8.904;2023-10-09T12:38:15;6.73;;;3.93;;
8714;SDS011;4394;51.208;8.904;2023-10-09T12:41:09;5.13;;;4.10;;
8714;SDS011;4394;51.208;8.904;2023-10-09T12:44:05;7.00;;;4.40;;
8714;SDS011;4394;51.208;8.904;2023-10-09T12:47:03;6.33;;;4.03;;
8714;SDS011;4394;51.208;8.904;2023-10-09T12:49:51;6.73;;;3.90;;
8714;SDS011;4394;51.208;8.904;2023-10-09T12:52:40;7.37;;;3.83;;
8714;SDS011;4394;51.208;8.904;2023-10-09T12:55:29;6.93;;;4.37;;
8714;SDS011;4394;51.208;8.904;2023-10-09T12:58:29;9.53;;;4.63;;
8714;SDS011;4394;51.208;8.904;2023-10-09T13:01:18;6.23;;;4.17;;
8714;SDS011;4394;51.208;8.904;2023-10-09T13:04:08;9.17;;;4.07;;
8714;SDS011;4394;51.208;8.904;2023-10-09T13:06:58;5.67;;;3.80;;
8714;SDS011;4394;51.208;8.904;2023-10-09T13:09:49;9.27;;;4.60;;
8714;SDS011;4394;51.208;8.904;2023-10-09T13:12:52;7.67;;;4.23;;
8714;SDS011;4394;51.208;8.904;2023-10-09T13:15:42;7.03;;;4.10;;
8714;SDS011;4394;51.208;8.904;2023-10-09T13:18:30;7.10;;;4.30;;
8714;SDS011;4394;51.208;8.904;2023-10-09T13:21:20;6.27;;;4.20;;
8714;SDS011;4394;51.208;8.904;2023-10-09T13:24:10;8.67;;;4.10;;
8714;SDS011;4394;51.208;8.904;2023-10-09T13:27:02;7.97;;;4.53;;
8714;SDS011;4394;51.208;8.904;2023-10-09T13:29:51;8.03;;;4.47;;
8714;SDS011;4394;51.208;8.904;2023-10-09T13:32:39;6.80;;;4.43;;
8714;SDS011;4394;51.208;8.904;2023-10-09T13:35:29;7.18;;;4.68;;
8714;SDS011;4394;51.208;8.904;2023-10-09T13:38:25;6.17;;;3.80;;
8714;SDS011;4394;51.208;8.904;2023-10-09T13:41:13;6.53;;;4.60;;
8714;SDS011;4394;51.208;8.904;2023-10-09T13:44:04;7.53;;;4.13;;
8714;SDS011;4394;51.208;8.904;2023-10-09T13:46:52;8.37;;;4.27;;
8714;SDS011;4394;51.208;8.904;2023-10-09T13:49:41;8.25;;;4.65;;
8714;SDS011;4394;51.208;8.904;2023-10-09T13:52:30;6.83;;;4.23;;
8714;SDS011;4394;51.208;8.904;2023-10-09T13:55:20;7.10;;;4.37;;
8714;SDS011;4394;51.208;8.904;2023-10-09T13:58:08;7.13;;;4.53;;
8714;SDS011;4394;51.208;8.904;2023-10-09T14:01:00;8.73;;;4.20;;
8714;SDS011;4394;51.208;8.904;2023-10-09T14:03:48;6.50;;;4.00;;
8714;SDS011;4394;51.208;8.904;2023-10-09T14:06:41;7.00;;;4.30;;
8714;SDS011;4394;51.208;8.904;2023-10-09T14:09:31;9.27;;;4.97;;
8714;SDS011;4394;51.208;8.904;2023-10-09T14:12:25;6.63;;;4.00;;
8714;SDS011;4394;51.208;8.904;2023-10-09T14:15:16;8.87;;;4.33;;
8714;SDS011;4394;51.208;8.904;2023-10-09T14:18:04;7.90;;;4.37;;
8714;SDS011;4394;51.208;8.904;2023-10-09T14:20:55;9.10;;;4.40;;
8714;SDS011;4394;51.208;8.904;2023-10-09T14:23:43;7.70;;;4.43;;
8714;SDS011;4394;51.208;8.904;2023-10-09T14:26:33;9.03;;;4.60;;
8714;SDS011;4394;51.208;8.904;2023-10-09T14:29:23;7.43;;;4.20;;
8714;SDS011;4394;51.208;8.904;2023-10-09T14:32:13;6.33;;;4.03;;
8714;SDS011;4394;51.208;8.904;2023-10-09T14:35:02;6.33;;;3.97;;
8714;SDS011;4394;51.208;8.904;2023-10-09T14:37:59;7.33;;;4.10;;
8714;SDS011;4394;51.208;8.904;2023-10-09T14:40:51;8.63;;;4.33;;
8714;SDS011;4394;51.208;8.904;2023-10-09T14:43:44;13.63;;;4.63;;
8714;SDS011;4394;51.208;8.904;2023-10-09T14:46:35;7.03;;;3.83;;
8714;SDS011;4394;51.208;8.904;2023-10-09T14:49:23;8.83;;;4.30;;
8714;SDS011;4394;51.208;8.904;2023-10-09T14:52:11;8.85;;;4.22;;
8714;SDS011;4394;51.208;8.904;2023-10-09T14:55:03;10.87;;;4.20;;
8714;SDS011;4394;51.208;8.904;2023-10-09T14:57:52;10.03;;;4.40;;
8714;SDS011;4394;51.208;8.904;2023-10-09T15:00:40;6.73;;;3.93;;
8714;SDS011;4394;51.208;8.904;2023-10-09T15:03:34;6.00;;;4.10;;
8714;SDS011;4394;51.208;8.904;2023-10-09T15:06:24;8.70;;;3.80;;
8714;SDS011;4394;51.208;8.904;2023-10-09T15:09:14;8.33;;;4.50;;
8714;SDS011;4394;51.208;8.904;2023-10-09T15:12:08;10.07;;;4.10;;
8714;SDS011;4394;51.208;8.904;2023-10-09T15:14:57;8.90;;;4.07;;
8714;SDS011;4394;51.208;8.904;2023-10-09T15:17:45;8.10;;;4.03;;
8714;SDS011;4394;51.208;8.904;2023-10-09T15:20:36;8.93;;;4.50;;
8714;SDS011;4394;51.208;8.904;2023-10-09T15:23:26;6.90;;;3.80;;
8714;SDS011;4394;51.208;8.904;2023-10-09T15:26:14;7.63;;;3.90;;
8714;SDS011;4394;51.208;8.904;2023-10-09T15:29:03;7.83;;;3.87;;
8714;SDS011;4394;51.208;8.904;2023-10-09T15:31:54;11.93;;;4.27;;
8714;SDS011;4394;51.208;8.904;2023-10-09T15:34:42;9.17;;;3.93;;
8714;SDS011;4394;51.208;8.904;2023-10-09T15:37:32;6.70;;;3.80;;
8714;SDS011;4394;51.208;8.904;2023-10-09T15:40:20;8.40;;;3.90;;
8714;SDS011;4394;51.208;8.904;2023-10-09T15:43:10;7.47;;;4.10;;
8714;SDS011;4394;51.208;8.904;2023-10-09T15:46:00;9.63;;;3.77;;
8714;SDS011;4394;51.208;8.904;2023-10-09T15:48:48;9.93;;;4.00;;
8714;SDS011;4394;51.208;8.904;2023-10-09T15:51:39;7.67;;;3.80;;
8714;SDS011;4394;51.208;8.904;2023-10-09T15:54:31;9.17;;;4.17;;
8714;SDS011;4394;51.208;8.904;2023-10-09T15:57:19;10.23;;;4.07;;
8714;SDS011;4394;51.208;8.904;2023-10-09T16:00:08;9.17;;;3.63;;
8714;SDS011;4394;51.208;8.904;2023-10-09T16:03:04;7.07;;;3.70;;
8714;SDS011;4394;51.208;8.904;2023-10-09T16:05:57;7.07;;;4.23;;
8714;SDS011;4394;51.208;8.904;2023-10-09T16:08:46;6.77;;;3.80;;
8714;SDS011;4394;51.208;8.904;2023-10-09T16:11:38;8.17;;;4.00;;
8714;SDS011;4394;51.208;8.904;2023-10-09T16:14:26;9.63;;;4.17;;
8714;SDS011;4394;51.208;8.904;2023-10-09T16:17:14;6.13;;;3.70;;
8714;SDS011;4394;51.208;8.904;2023-10-09T16:20:03;10.63;;;4.53;;
8714;SDS011;4394;51.208;8.904;2023-10-09T16:23:00;8.53;;;3.80;;
8714;SDS011;4394;51.208;8.904;2023-10-09T16:25:51;10.80;;;4.33;;
8714;SDS011;4394;51.208;8.904;2023-10-09T16:28:40;9.97;;;3.93;;
8714;SDS011;4394;51.208;8.904;2023-10-09T16:31:29;9.47;;;4.43;;
8714;SDS011;4394;51.208;8.904;2023-10-09T16:34:26;7.40;;;4.37;;
8714;SDS011;4394;51.208;8.904;2023-10-09T16:37:15;7.20;;;4.00;;
8714;SDS011;4394;51.208;8.904;2023-10-09T16:40:05;9.13;;;4.00;;
8714;SDS011;4394;51.208;8.904;2023-10-09T16:42:57;6.80;;;4.03;;
8714;SDS011;4394;51.208;8.904;2023-10-09T16:45:48;7.73;;;4.93;;
8714;SDS011;4394;51.208;8.904;2023-10-09T16:48:37;11.37;;;4.90;;
8714;SDS011;4394;51.208;8.904;2023-10-09T16:51:26;8.03;;;4.73;;
8714;SDS011;4394;51.208;8.904;2023-10-09T16:54:14;10.57;;;4.33;;
8714;SDS011;4394;51.208;8.904;2023-10-09T16:57:02;9.07;;;4.23;;
8714;SDS011;4394;51.208;8.904;2023-10-09T16:59:55;9.07;;;4.40;;
8714;SDS011;4394;51.208;8.904;2023-10-09T17:02:45;9.97;;;4.43;;
8714;SDS011;4394;51.208;8.904;2023-10-09T17:05:35;7.43;;;4.77;;
8714;SDS011;4394;51.208;8.904;2023-10-09T17:08:41;11.07;;;4.80;;
8714;SDS011;4394;51.208;8.904;2023-10-09T17:11:31;9.87;;;4.50;;
8714;SDS011;4394;51.208;8.904;2023-10-09T17:14:23;7.47;;;5.10;;
8714;SDS011;4394;51.208;8.904;2023-10-09T17:17:13;11.97;;;5.23;;
8714;SDS011;4394;51.208;8.904;2023-10-09T17:20:03;12.13;;;5.20;;
8714;SDS011;4394;51.208;8.904;2023-10-09T17:22:56;7.33;;;4.97;;
8714;SDS011;4394;51.208;8.904;2023-10-09T17:25:46;8.83;;;5.40;;
8714;SDS011;4394;51.208;8.904;2023-10-09T17:28:43;8.77;;;4.77;;
8714;SDS011;4394;51.208;8.904;2023-10-09T17:31:31;8.07;;;5.00;;
8714;SDS011;4394;51.208;8.904;2023-10-09T17:34:21;10.73;;;5.57;;
8714;SDS011;4394;51.208;8.904;2023-10-09T17:37:12;7.63;;;5.03;;
8714;SDS011;4394;51.208;8.904;2023-10-09T17:40:00;11.53;;;6.13;;
8714;SDS011;4394;51.208;8.904;2023-10-09T17:42:49;10.67;;;6.13;;
8714;SDS011;4394;51.208;8.904;2023-10-09T17:45:39;9.27;;;5.70;;
8714;SDS011;4394;51.208;8.904;2023-10-09T17:48:27;8.30;;;5.90;;
8714;SDS011;4394;51.208;8.904;2023-10-09T17:51:16;10.70;;;5.97;;
8714;SDS011;4394;51.208;8.904;2023-10-09T17:54:06;11.00;;;6.10;;
8714;SDS011;4394;51.208;8.904;2023-10-09T17:56:55;10.47;;;6.03;;
8714;SDS011;4394;51.208;8.904;2023-10-09T17:59:46;13.32;;;7.32;;